Time;durP1;ratioP1;P1;durP2;ratioP2;P2;SDS_P1;SDS_P2;PMS_P1;PMS_P2;Temp;Humidity;BMP_temperature;BMP_pressure;BME280_temperature;BME280_humidity;BME280_pressure;Samples;Min_cycle;Max_cycle;Signal;HPM_P1;HPM_P2
2022/06/20 00:00:27;;;;;;;7.38;4.13;;;486.40;2380.80;;;;;;5017232;28;20112;-85
2022/06/20 00:02:56;;;;;;;6.55;3.95;;;486.40;2380.80;;;;;;5015921;28;20069;-85
2022/06/20 00:05:30;;;;;;;7.97;4.10;;;461.70;2380.80;;;;;;5015946;28;20410;-82
2022/06/20 00:07:56;;;;;;;6.72;4.30;;;461.70;2380.80;;;;;;5016149;28;20041;-84
2022/06/20 00:10:24;;;;;;;6.22;4.10;;;461.50;2380.80;;;;;;5015730;28;20045;-84
2022/06/20 00:12:51;;;;;;;8.90;3.75;;;461.50;2380.80;;;;;;5015825;28;20460;-83
2022/06/20 00:15:30;;;;;;;7.78;3.88;;;461.70;2380.80;;;;;;5017168;28;20101;-82
2022/06/20 00:17:57;;;;;;;10.85;4.63;;;461.70;2380.80;;;;;;5016765;28;20069;-82
2022/06/20 00:20:23;;;;;;;7.45;4.72;;;461.70;2380.80;;;;;;5015987;28;20033;-84
2022/06/20 00:22:49;;;;;;;8.85;4.47;;;486.40;2380.80;;;;;;5015771;28;20026;-82
2022/06/20 00:25:16;;;;;;;9.80;4.55;;;486.40;2380.80;;;;;;5015580;28;20022;-82
2022/06/20 00:27:43;;;;;;;9.90;3.97;;;486.40;2380.80;;;;;;5017419;28;20482;-83
2022/06/20 00:30:11;;;;;;;6.18;4.28;;;486.40;2380.80;;;;;;5015831;28;20125;-84
2022/06/20 00:32:37;;;;;;;6.68;3.58;;;486.40;2380.80;;;;;;5015601;28;20029;-84
2022/06/20 00:35:03;;;;;;;6.30;3.80;;;461.60;2380.80;;;;;;5015451;28;20482;-82
2022/06/20 00:37:29;;;;;;;5.03;3.28;;;461.70;2380.80;;;;;;5015110;28;20034;-83
2022/06/20 00:39:55;;;;;;;6.80;3.65;;;461.60;2380.80;;;;;;5015493;28;20026;-84
2022/06/20 00:42:20;;;;;;;10.00;3.72;;;461.60;2380.80;;;;;;5016403;28;20026;-83
2022/06/20 00:45:01;;;;;;;5.90;3.50;;;461.50;2380.80;;;;;;5015512;28;20391;-84
2022/06/20 00:47:32;;;;;;;6.65;3.20;;;461.50;2380.80;;;;;;5015368;28;20045;-83
2022/06/20 00:50:16;;;;;;;5.68;3.25;;;461.50;2380.80;;;;;;5015745;28;20489;-85
2022/06/20 00:52:51;;;;;;;7.97;3.65;;;461.50;2380.80;;;;;;5015592;28;20022;-87
2022/06/20 00:55:39;;;;;;;6.88;4.32;;;461.40;2380.80;;;;;;5015487;28;20030;-84
2022/06/20 00:58:17;;;;;;;8.73;4.60;;;461.30;2380.80;;;;;;5015608;28;20037;-86
2022/06/20 01:00:43;;;;;;;7.00;3.40;;;461.50;2380.80;;;;;;5015239;28;20025;-83
2022/06/20 01:03:18;;;;;;;9.95;4.88;;;461.50;2380.80;;;;;;5015653;28;20077;-83
2022/06/20 01:05:46;;;;;;;8.90;4.97;;;461.60;2380.80;;;;;;5004665;28;20034;-84
2022/06/20 01:08:25;;;;;;;5.97;4.28;;;461.40;2380.80;;;;;;4996179;28;20019;-87
2022/06/20 01:11:11;;;;;;;6.65;3.63;;;461.40;2380.80;;;;;;4995264;28;20033;-84
2022/06/20 01:13:37;;;;;;;11.18;4.35;;;461.40;2380.80;;;;;;4996115;28;20023;-84
2022/06/20 01:16:13;;;;;;;6.88;4.90;;;461.40;2380.80;;;;;;4996250;28;20026;-83
2022/06/20 01:18:42;;;;;;;7.43;4.72;;;461.10;2380.80;;;;;;4995613;28;20026;-83
2022/06/20 01:21:23;;;;;;;9.88;4.18;;;460.90;2380.80;;;;;;4995027;28;20490;-84
2022/06/20 01:23:58;;;;;;;5.82;3.90;;;436.10;2355.20;;;;;;5003318;28;20464;-83
2022/06/20 01:26:37;;;;;;;7.00;3.90;;;460.80;2380.80;;;;;;5011127;28;20037;-84
2022/06/20 01:29:07;;;;;;;6.20;4.05;;;460.80;2380.80;;;;;;5001896;28;20061;-82
2022/06/20 01:31:39;;;;;;;10.30;5.07;;;460.80;2380.80;;;;;;4997771;28;20041;-83
2022/06/20 01:34:06;;;;;;;5.55;3.50;;;460.80;2380.80;;;;;;4997000;28;20379;-83
2022/06/20 01:39:21;;;;;;;8.10;3.50;;;460.80;2380.80;;;;;;5015831;28;20045;-84
2022/06/20 01:44:40;;;;;;;7.55;3.70;;;460.80;2380.80;;;;;;5015707;28;20388;-85
2022/06/20 01:47:06;;;;;;;7.95;4.25;;;460.90;2380.80;;;;;;4998127;28;20398;-84
2022/06/20 01:49:33;;;;;;;6.55;4.18;;;436.10;2355.20;;;;;;4997790;28;20428;-82
2022/06/20 01:52:07;;;;;;;6.57;4.20;;;436.10;2355.20;;;;;;4997978;28;20062;-84
2022/06/20 01:54:40;;;;;;;6.68;3.63;;;460.80;2380.80;;;;;;5017408;28;20056;-82
2022/06/20 01:57:09;;;;;;;7.10;4.15;;;436.10;2355.20;;;;;;5002365;28;20498;-84
2022/06/20 01:59:41;;;;;;;5.05;3.45;;;436.10;2355.20;;;;;;5002901;28;20033;-85
2022/06/20 02:02:06;;;;;;;6.13;3.85;;;436.10;2355.20;;;;;;4997558;28;20029;-84
2022/06/20 02:04:36;;;;;;;7.32;4.10;;;435.90;2355.20;;;;;;4997741;28;20025;-84
2022/06/20 02:07:05;;;;;;;6.65;4.13;;;435.70;2355.20;;;;;;4997448;28;20040;-84
2022/06/20 02:09:30;;;;;;;4.85;3.55;;;435.90;2355.20;;;;;;4997204;28;20632;-83
2022/06/20 02:11:58;;;;;;;8.13;4.43;;;435.90;2355.20;;;;;;4997407;28;20069;-84
2022/06/20 02:14:34;;;;;;;7.18;4.38;;;435.70;2355.20;;;;;;5015085;28;20480;-84
2022/06/20 02:17:06;;;;;;;6.82;3.58;;;435.70;2355.20;;;;;;4997287;28;20475;-84
2022/06/20 02:19:36;;;;;;;9.43;3.85;;;435.80;2355.20;;;;;;5014785;28;20562;-84
2022/06/20 02:22:05;;;;;;;8.18;3.70;;;435.80;2355.20;;;;;;4997176;28;20030;-84
2022/06/20 02:24:39;;;;;;;5.53;3.47;;;435.90;2355.20;;;;;;4997003;28;20033;-85
2022/06/20 02:27:10;;;;;;;5.45;3.30;;;435.80;2355.20;;;;;;4997015;28;20040;-85
2022/06/20 02:29:36;;;;;;;5.85;3.65;;;435.80;2355.20;;;;;;4996608;28;20081;-85
2022/06/20 02:32:12;;;;;;;6.07;3.75;;;435.70;2355.20;;;;;;4997059;28;20069;-82
2022/06/20 02:34:38;;;;;;;6.53;3.80;;;435.60;2355.20;;;;;;4997210;28;20049;-85
2022/06/20 02:37:10;;;;;;;5.32;3.45;;;435.50;2355.20;;;;;;4996403;28;20049;-83
2022/06/20 02:39:41;;;;;;;4.88;3.20;;;435.60;2355.20;;;;;;4996920;28;20030;-84
2022/06/20 02:42:13;;;;;;;7.43;3.80;;;435.60;2355.20;;;;;;4997000;28;20084;-84
2022/06/20 02:44:44;;;;;;;6.03;3.92;;;435.50;2355.20;;;;;;4996694;28;20097;-85
2022/06/20 02:47:10;;;;;;;6.28;3.75;;;435.30;2355.20;;;;;;4996949;28;20456;-83
2022/06/20 02:49:37;;;;;;;4.75;3.70;;;435.50;2355.20;;;;;;5014145;28;20026;-82
2022/06/20 02:52:07;;;;;;;4.60;3.13;;;435.20;2355.20;;;;;;4996578;28;20022;-84
2022/06/20 02:54:36;;;;;;;6.75;3.50;;;435.50;2355.20;;;;;;4996656;28;20477;-86
2022/06/20 02:57:10;;;;;;;6.05;3.53;;;435.30;2355.20;;;;;;4996852;28;20418;-83
2022/06/20 02:59:47;;;;;;;13.63;4.00;;;435.40;2355.20;;;;;;4997008;28;20117;-84
2022/06/20 03:02:15;;;;;;;7.20;4.03;;;435.40;2355.20;;;;;;4997317;28;20030;-82
2022/06/20 03:04:44;;;;;;;8.38;4.85;;;410.50;2355.20;;;;;;4996767;28;20029;-83
2022/06/20 03:07:31;;;;;;;6.32;3.67;;;435.20;2355.20;;;;;;4998134;28;20072;-85
2022/06/20 03:10:14;;;;;;;6.68;4.13;;;410.50;2355.20;;;;;;5003073;28;20371;-83
2022/06/20 03:12:40;;;;;;;;;;;410.30;2355.20;;;;;;5002564;28;20026;-85
2022/06/20 03:15:06;;;;;;;7.32;3.22;;;410.20;2355.20;;;;;;5021776;28;19992;-82
2022/06/20 03:17:32;;;;;;;7.35;3.70;;;410.30;2355.20;;;;;;5004523;28;20038;-82
2022/06/20 03:20:03;;;;;;;9.73;3.72;;;410.30;2355.20;;;;;;4996755;28;20092;-86
2022/06/20 03:22:35;;;;;;;11.00;5.05;;;410.10;2355.20;;;;;;4996560;28;20068;-84
2022/06/20 03:25:01;;;;;;;6.22;3.67;;;410.00;2355.20;;;;;;5014449;28;20203;-83
2022/06/20 03:27:30;;;;;;;8.40;3.90;;;410.20;2355.20;;;;;;5020764;28;20018;-84
2022/06/20 03:30:04;;;;;;;5.93;3.50;;;410.30;2355.20;;;;;;5020506;28;20038;-84
2022/06/20 03:32:30;;;;;;;6.82;3.35;;;410.20;2355.20;;;;;;5004572;28;20037;-83
2022/06/20 03:34:55;;;;;;;9.07;3.83;;;410.30;2355.20;;;;;;5006803;28;20026;-82
2022/06/20 03:37:23;;;;;;;6.95;3.85;;;410.50;2355.20;;;;;;5024758;28;20038;-83
2022/06/20 03:39:50;;;;;;;7.72;3.55;;;410.50;2355.20;;;;;;5007278;28;20072;-83
2022/06/20 03:42:17;;;;;;;6.63;4.53;;;410.50;2355.20;;;;;;5006720;28;20117;-83
2022/06/20 03:44:49;;;;;;;5.72;3.60;;;410.50;2355.20;;;;;;5002919;28;20029;-85
2022/06/20 03:47:20;;;;;;;9.27;4.25;;;435.20;2355.20;;;;;;4999823;28;20040;-84
2022/06/20 03:49:53;;;;;;;8.73;4.47;;;410.30;2355.20;;;;;;5017201;28;20041;-84
2022/06/20 03:52:22;;;;;;;18.38;9.00;;;410.30;2355.20;;;;;;5017574;28;20026;-84
2022/06/20 03:54:48;;;;;;;13.70;6.90;;;410.30;2355.20;;;;;;5017206;28;20034;-84
2022/06/20 03:57:25;;;;;;;9.70;5.05;;;410.50;2355.20;;;;;;4999960;28;20030;-83
2022/06/20 04:00:06;;;;;;;9.75;4.68;;;435.30;2355.20;;;;;;4999850;28;20084;-83
2022/06/20 04:02:51;;;;;;;11.27;4.47;;;435.20;2355.20;;;;;;4999626;28;20384;-82
2022/06/20 04:05:41;;;;;;;7.72;4.07;;;435.20;2355.20;;;;;;4999537;28;20474;-82
2022/06/20 04:08:16;;;;;;;10.35;4.97;;;410.50;2355.20;;;;;;5017119;28;20033;-85
2022/06/20 04:11:00;;;;;;;9.45;4.90;;;410.50;2355.20;;;;;;4999782;28;20464;-83
2022/06/20 04:14:07;;;;;;;13.75;5.20;;;410.40;2355.20;;;;;;4999671;28;20116;-83
2022/06/20 04:16:44;;;;;;;8.02;4.20;;;410.30;2355.20;;;;;;4999061;28;20493;-83
2022/06/20 04:19:15;;;;;;;11.13;4.78;;;410.30;2355.20;;;;;;4999518;28;20022;-84
2022/06/20 04:22:14;;;;;;;10.90;5.43;;;410.20;2355.20;;;;;;4999426;28;20038;-84
2022/06/20 04:24:54;;;;;;;9.50;4.65;;;410.30;2355.20;;;;;;4999372;28;20030;-83
2022/06/20 04:27:43;;;;;;;9.05;5.07;;;410.30;2355.20;;;;;;5017175;28;20029;-85
2022/06/20 04:30:22;;;;;;;10.50;4.72;;;410.30;2355.20;;;;;;4998684;28;20050;-84
2022/06/20 04:33:14;;;;;;;8.02;4.88;;;410.50;2355.20;;;;;;4999199;28;20018;-84
2022/06/20 04:35:47;;;;;;;9.63;5.13;;;410.50;2355.20;;;;;;4998086;28;20302;-85
2022/06/20 04:38:21;;;;;;;10.55;4.57;;;410.30;2355.20;;;;;;5016450;28;20037;-83
2022/06/20 04:40:58;;;;;;;11.00;5.00;;;410.30;2355.20;;;;;;4999051;28;20026;-84
2022/06/20 04:43:25;;;;;;;8.90;4.45;;;410.40;2355.20;;;;;;4999122;28;20030;-83
2022/06/20 04:46:05;;;;;;;8.85;5.05;;;410.50;2355.20;;;;;;4997779;28;20026;-84
2022/06/20 04:48:31;;;;;;;8.77;4.70;;;435.30;2355.20;;;;;;5016420;28;20332;-84
2022/06/20 04:51:00;;;;;;;9.93;4.75;;;435.20;2355.20;;;;;;4998661;28;20029;-85
2022/06/20 04:53:36;;;;;;;10.93;4.38;;;435.40;2355.20;;;;;;5016806;28;20414;-84
2022/06/20 04:56:07;;;;;;;8.77;3.95;;;435.40;2355.20;;;;;;5016328;28;20387;-83
2022/06/20 04:58:38;;;;;;;10.15;4.70;;;435.60;2355.20;;;;;;4998455;28;20037;-84
2022/06/20 05:01:07;;;;;;;12.10;5.30;;;435.60;2355.20;;;;;;4998972;28;20026;-84
2022/06/20 05:03:45;;;;;;;8.90;4.50;;;435.80;2355.20;;;;;;4998274;28;20125;-82
2022/06/20 05:06:21;;;;;;;12.52;5.30;;;435.80;2355.20;;;;;;4998715;28;20034;-84
2022/06/20 05:08:53;;;;;;;10.07;4.53;;;435.80;2355.20;;;;;;4998712;28;20021;-83
2022/06/20 05:11:40;;;;;;;12.93;5.20;;;435.90;2355.20;;;;;;4998711;28;20033;-84
2022/06/20 05:14:31;;;;;;;10.60;5.30;;;436.00;2355.20;;;;;;5016656;28;20029;-84
2022/06/20 05:16:57;;;;;;;12.75;4.70;;;436.10;2355.20;;;;;;4998494;28;20529;-83
2022/06/20 05:19:23;;;;;;;9.45;4.53;;;460.80;2380.80;;;;;;4998445;28;20088;-84
2022/06/20 05:21:53;;;;;;;10.25;4.97;;;460.90;2380.80;;;;;;4998514;28;20411;-86
2022/06/20 05:24:33;;;;;;;9.70;4.95;;;460.90;2380.80;;;;;;5016290;28;20482;-81
2022/06/20 05:27:06;;;;;;;8.02;4.15;;;461.00;2380.80;;;;;;4998604;28;20478;-83
2022/06/20 05:29:34;;;;;;;9.02;4.70;;;461.00;2380.80;;;;;;5016265;28;20054;-84
2022/06/20 05:32:05;;;;;;;10.82;5.00;;;461.10;2380.80;;;;;;4998380;28;20022;-85
2022/06/20 05:34:38;;;;;;;11.20;4.57;;;461.20;2380.80;;;;;;4998542;28;20065;-82
2022/06/20 05:37:25;;;;;;;7.43;4.03;;;461.30;2380.80;;;;;;4998534;28;20033;-84
2022/06/20 05:40:02;;;;;;;7.30;4.70;;;461.40;2380.80;;;;;;4998331;28;20033;-83
2022/06/20 05:42:28;;;;;;;8.00;4.43;;;461.50;2380.80;;;;;;5014895;28;20472;-82
2022/06/20 05:44:53;;;;;;;10.40;6.18;;;461.70;2380.80;;;;;;4998881;28;20037;-84
2022/06/20 05:47:30;;;;;;;7.28;4.32;;;486.40;2380.80;;;;;;4998503;28;20034;-84
2022/06/20 05:50:14;;;;;;;10.93;4.85;;;486.40;2380.80;;;;;;4998454;28;20495;-85
2022/06/20 05:52:41;;;;;;;9.32;4.75;;;486.50;2380.80;;;;;;4998148;28;20060;-82
2022/06/20 05:55:25;;;;;;;9.27;5.28;;;486.50;2380.80;;;;;;5016137;28;20084;-83
2022/06/20 05:57:55;;;;;;;7.78;5.10;;;486.60;2380.80;;;;;;5015435;28;20045;-83
2022/06/20 06:00:33;;;;;;;11.82;4.13;;;486.60;2380.80;;;;;;4999488;28;20226;-83
2022/06/20 06:03:10;;;;;;;8.32;3.55;;;486.70;2380.80;;;;;;5001034;28;20022;-83
2022/06/20 06:05:48;;;;;;;8.45;4.00;;;486.80;2380.80;;;;;;4999231;28;20485;-84
2022/06/20 06:08:35;;;;;;;9.73;3.90;;;486.90;2380.80;;;;;;4997695;28;20034;-84
2022/06/20 06:11:43;;;;;;;5.38;3.55;;;487.10;2380.80;;;;;;4997734;28;20033;-86
2022/06/20 06:14:31;;;;;;;5.93;3.60;;;487.10;2380.80;;;;;;4997664;28;20029;-83
2022/06/20 06:17:10;;;;;;;7.70;4.40;;;487.20;2380.80;;;;;;4996886;28;20041;-84
2022/06/20 06:19:52;;;;;;;8.50;3.60;;;512.10;2380.80;;;;;;4997518;28;20025;-83
2022/06/20 06:22:21;;;;;;;6.72;3.45;;;512.50;2380.80;;;;;;4997062;28;20080;-84
2022/06/20 06:24:50;;;;;;;11.02;3.83;;;512.70;2380.80;;;;;;4997322;28;20049;-83
2022/06/20 06:27:23;;;;;;;6.63;3.83;;;512.80;2380.80;;;;;;5014900;28;20112;-83
2022/06/20 06:29:57;;;;;;;4.47;2.70;;;537.60;2406.40;;;;;;4996865;28;20061;-83
2022/06/20 06:32:27;;;;;;;5.50;3.70;;;512.90;2380.80;;;;;;4997271;28;20037;-84
2022/06/20 06:35:11;;;;;;;7.22;3.60;;;537.70;2406.40;;;;;;4997174;28;20036;-84
2022/06/20 06:37:55;;;;;;;7.07;3.13;;;537.80;2406.40;;;;;;4997078;28;20037;-83
2022/06/20 06:40:39;;;;;;;6.15;3.10;;;537.90;2406.40;;;;;;4996968;28;20506;-84
2022/06/20 06:43:39;;;;;;;10.63;3.42;;;538.10;2406.40;;;;;;4996900;28;20033;-85
2022/06/20 06:46:21;;;;;;;5.63;3.75;;;538.10;2406.40;;;;;;4997935;28;20036;-83
2022/06/20 06:49:26;;;;;;;7.20;3.38;;;538.30;2406.40;;;;;;4997375;28;20025;-84
2022/06/20 06:51:58;;;;;;;10.10;3.53;;;538.50;2406.40;;;;;;4967302;28;20092;-84
2022/06/20 06:54:58;;;;;;;8.02;3.97;;;538.50;2406.40;;;;;;4997364;28;20026;-85
2022/06/20 06:57:56;;;;;;;9.02;4.38;;;538.50;2406.40;;;;;;5009109;28;20053;-83
2022/06/20 07:00:37;;;;;;;5.90;3.60;;;563.30;2432.00;;;;;;5004779;28;20096;-82
2022/06/20 07:03:27;;;;;;;8.63;3.72;;;563.50;2432.00;;;;;;4996820;28;20391;-83
2022/06/20 07:06:00;;;;;;;8.80;3.60;;;563.70;2432.00;;;;;;4996614;28;20076;-84
2022/06/20 07:08:31;;;;;;;8.40;3.35;;;564.00;2432.00;;;;;;4996031;28;20030;-84
2022/06/20 07:11:21;;;;;;;7.80;3.88;;;564.00;2432.00;;;;;;4997133;28;20180;-83
2022/06/20 07:13:53;;;;;;;8.93;3.40;;;564.10;2432.00;;;;;;4996630;28;20062;-84
2022/06/20 07:16:22;;;;;;;;;;;588.80;2432.00;;;;;;4996728;28;20026;-83
2022/06/20 07:18:53;;;;;;;6.72;3.38;;;588.90;2432.00;;;;;;5012969;28;19909;-83
2022/06/20 07:21:22;;;;;;;8.05;3.20;;;589.10;2432.00;;;;;;4996735;28;20026;-84
2022/06/20 07:24:01;;;;;;;8.38;3.95;;;589.20;2432.00;;;;;;4996509;28;20029;-84
2022/06/20 07:26:37;;;;;;;12.10;3.63;;;589.20;2432.00;;;;;;4996702;28;20036;-84
2022/06/20 07:29:16;;;;;;;13.10;3.78;;;589.30;2432.00;;;;;;4996173;28;20061;-84
2022/06/20 07:31:59;;;;;;;7.00;3.25;;;589.50;2432.00;;;;;;4996339;28;20036;-84
2022/06/20 07:34:32;;;;;;;5.45;3.20;;;589.60;2432.00;;;;;;5012981;28;20030;-84
2022/06/20 07:37:04;;;;;;;5.80;3.90;;;614.50;2432.00;;;;;;4996206;28;20037;-84
2022/06/20 07:39:37;;;;;;;6.43;2.80;;;;;;;;;;4995975;28;20037;-82
2022/06/20 07:42:07;;;;;;;6.45;3.55;;;;;;;;;;4996112;28;20080;-82
2022/06/20 07:44:39;;;;;;;9.38;4.32;;;;;;;;;;4995957;28;20434;-82
2022/06/20 07:47:08;;;;;;;4.63;2.95;;;614.90;2380.80;;;;;;4996082;28;20064;-83
2022/06/20 07:49:49;;;;;;;4.70;3.10;;;615.10;2380.80;;;;;;4996214;28;20026;-83
2022/06/20 07:52:32;;;;;;;5.07;3.17;;;615.30;2329.60;;;;;;4996061;28;20057;-83
2022/06/20 07:55:06;;;;;;;6.20;3.13;;;615.30;2329.60;;;;;;4996131;28;20121;-84
2022/06/20 07:57:45;;;;;;;7.30;3.83;;;640.40;2355.20;;;;;;5008633;28;20403;-80
2022/06/20 08:00:22;;;;;;;7.43;3.53;;;640.60;2304.00;;;;;;5019101;28;20044;-81
2022/06/20 08:02:50;;;;;;;7.95;3.35;;;640.70;2304.00;;;;;;5032463;28;20018;-84
2022/06/20 08:05:27;;;;;;;4.75;2.88;;;640.90;2278.40;;;;;;5013958;28;20072;-83
2022/06/20 08:08:16;;;;;;;9.82;3.03;;;640.60;2227.20;;;;;;4996214;28;20030;-84
2022/06/20 08:10:57;;;;;;;6.88;3.55;;;640.80;2227.20;;;;;;4996212;28;20033;-83
2022/06/20 08:13:35;;;;;;;9.23;3.38;;;665.60;2227.20;;;;;;4995582;28;20025;-84
2022/06/20 08:16:03;;;;;;;6.57;3.78;;;665.90;2252.80;;;;;;4995876;28;20208;-81
2022/06/20 08:18:30;;;;;;;7.45;2.90;;;666.00;2176.00;;;;;;4995993;28;20120;-83
2022/06/20 08:21:17;;;;;;;6.97;3.53;;;666.00;2201.60;;;;;;4999151;28;20026;-80
2022/06/20 08:23:52;;;;;;;7.05;3.75;;;666.30;2176.00;;;;;;4999451;28;20470;-79
2022/06/20 08:26:54;;;;;;;5.97;3.33;;;691.20;2124.80;;;;;;5016658;28;20049;-80
2022/06/20 08:29:46;;;;;;;6.68;2.72;;;666.30;2099.20;;;;;;5013874;28;20471;-81
2022/06/20 08:32:33;;;;;;;7.03;2.95;;;665.90;2099.20;;;;;;5010478;28;20038;-80
2022/06/20 08:35:09;;;;;;;8.07;3.00;;;666.30;2073.60;;;;;;5015617;28;20418;-81
2022/06/20 08:37:41;;;;;;;7.28;2.80;;;691.30;2099.20;;;;;;5016807;28;20065;-82
2022/06/20 08:40:26;;;;;;;6.25;3.00;;;691.70;2073.60;;;;;;5016826;28;20375;-81
2022/06/20 08:43:11;;;;;;;9.48;2.70;;;691.90;1996.80;;;;;;5016170;28;20022;-81
2022/06/20 08:46:10;;;;;;;5.18;2.75;;;691.80;1996.80;;;;;;4999605;28;20033;-84
2022/06/20 08:49:08;;;;;;;4.53;2.70;;;716.80;1996.80;;;;;;5000441;28;20072;-85
2022/06/20 08:52:08;;;;;;;5.35;2.13;;;717.10;1971.20;;;;;;4999767;28;20534;-84
2022/06/20 08:54:58;;;;;;;7.38;2.90;;;717.10;1971.20;;;;;;4999007;28;20022;-81
2022/06/20 08:57:53;;;;;;;5.22;2.50;;;717.50;1971.20;;;;;;4999195;28;20064;-83
2022/06/20 09:00:56;;;;;;;5.43;2.30;;;717.60;1920.00;;;;;;5016426;28;20105;-84
2022/06/20 09:03:47;;;;;;;4.60;2.72;;;717.50;1868.80;;;;;;4998636;28;20029;-82
2022/06/20 09:06:41;;;;;;;4.22;2.42;;;717.50;1868.80;;;;;;4998938;28;20030;-83
2022/06/20 09:09:27;;;;;;;5.75;2.70;;;742.40;1920.00;;;;;;4998623;28;20446;-81
2022/06/20 09:12:07;;;;;;;5.53;2.50;;;742.50;1920.00;;;;;;4998803;28;20026;-82
2022/06/20 09:14:51;;;;;;;5.35;2.20;;;742.60;1945.60;;;;;;4999051;28;20024;-83
2022/06/20 09:17:41;;;;;;;5.93;3.17;;;742.80;1945.60;;;;;;5022806;28;20038;-83
2022/06/20 09:20:45;;;;;;;8.75;3.50;;;743.00;1945.60;;;;;;5008852;28;20095;-86
2022/06/20 09:23:31;;;;;;;7.90;3.25;;;768.00;1920.00;;;;;;4962128;28;20066;-84
2022/06/20 09:26:20;;;;;;;7.45;3.90;;;768.00;1894.40;;;;;;5001148;28;20037;-84
2022/06/20 09:29:09;;;;;;;6.57;2.95;;;768.10;1894.40;;;;;;5014008;28;20022;-83
2022/06/20 09:31:49;;;;;;;6.75;3.75;;;768.30;1920.00;;;;;;4996998;28;20054;-83
2022/06/20 09:34:39;;;;;;;6.90;3.90;;;768.60;1894.40;;;;;;5003992;28;20037;-84
2022/06/20 09:37:20;;;;;;;9.90;4.05;;;768.90;1868.80;;;;;;4998113;28;20057;-85
2022/06/20 09:40:34;;;;;;;4.60;2.43;;;768.50;1868.80;;;;;;4998120;28;20534;-86
2022/06/20 09:43:15;;;;;;;5.90;3.05;;;743.10;1894.40;;;;;;4989283;28;20037;-84
2022/06/20 09:46:18;;;;;;;6.25;3.25;;;743.10;1894.40;;;;;;4997769;28;20030;-85
2022/06/20 09:48:56;;;;;;;6.50;4.60;;;768.20;1817.60;;;;;;4980835;28;20034;-86
2022/06/20 09:51:54;;;;;;;8.52;3.22;;;768.60;1792.00;;;;;;4997808;28;20046;-83
2022/06/20 09:54:33;;;;;;;4.22;2.92;;;793.60;1766.40;;;;;;4998145;28;20030;-84
2022/06/20 09:57:46;;;;;;;4.45;2.83;;;793.80;1740.80;;;;;;4997935;28;20045;-84
2022/06/20 10:00:50;;;;;;;3.65;2.03;;;794.20;1740.80;;;;;;4945524;28;20054;-85
2022/06/20 10:03:33;;;;;;;5.93;3.40;;;794.00;1689.60;;;;;;4997618;28;20026;-85
2022/06/20 10:06:24;;;;;;;7.43;4.25;;;768.90;1638.40;;;;;;4997421;28;20482;-83
2022/06/20 10:09:43;;;;;;;8.13;2.28;;;768.10;1638.40;;;;;;5001827;28;20029;-85
2022/06/20 10:12:25;;;;;;;2.90;1.80;;;768.10;1638.40;;;;;;4937417;29;20236;-85
2022/06/20 10:14:51;;;;;;;;;;;768.30;1638.40;;;;;;4999030;28;20375;-83
2022/06/20 10:17:22;;;;;;;8.05;4.50;;;793.60;1664.00;;;;;;4998004;28;19917;-83
2022/06/20 10:19:51;;;;;;;5.40;2.30;;;794.00;1612.80;;;;;;4996989;28;20034;-84
2022/06/20 10:22:39;;;;;;;5.47;3.58;;;794.20;1612.80;;;;;;4997042;28;20026;-84
2022/06/20 10:25:17;;;;;;;6.25;1.90;;;819.20;1612.80;;;;;;4996955;28;20050;-84
2022/06/20 10:27:59;;;;;;;4.82;2.88;;;794.20;1612.80;;;;;;4997321;28;20121;-85
2022/06/20 10:31:01;;;;;;;8.55;5.93;;;819.40;1587.20;;;;;;4996809;28;20042;-84
2022/06/20 10:33:38;;;;;;;6.00;2.88;;;819.60;1587.20;;;;;;4996900;28;20038;-83
2022/06/20 10:36:18;;;;;;;3.75;2.15;;;819.80;1561.60;;;;;;4997347;28;20084;-81
2022/06/20 10:39:11;;;;;;;5.00;1.70;;;819.30;1587.20;;;;;;4997300;28;20029;-84
2022/06/20 10:41:48;;;;;;;4.65;2.78;;;819.30;1561.60;;;;;;4954566;28;20034;-82
2022/06/20 10:44:23;;;;;;;5.28;3.00;;;819.60;1587.20;;;;;;4996573;28;20097;-82
2022/06/20 10:47:12;;;;;;;5.63;1.60;;;819.80;1561.60;;;;;;5032685;28;20164;-82
2022/06/20 10:50:02;;;;;;;4.88;1.67;;;819.60;1587.20;;;;;;5033757;28;20033;-84
2022/06/20 10:52:54;;;;;;;4.03;1.70;;;819.80;1561.60;;;;;;5033119;28;20025;-86
2022/06/20 10:55:38;;;;;;;3.63;2.03;;;819.80;1536.00;;;;;;5032634;28;20053;-83
2022/06/20 10:58:23;;;;;;;4.97;2.70;;;819.50;1561.60;;;;;;5032628;28;20041;-84
2022/06/20 11:01:01;;;;;;;3.85;1.98;;;819.40;1561.60;;;;;;5032464;28;20025;-84
2022/06/20 11:03:26;;;;;;;5.25;2.38;;;819.40;1561.60;;;;;;5032830;28;20036;-83
2022/06/20 11:06:09;;;;;;;7.20;2.03;;;819.30;1536.00;;;;;;5032685;28;20038;-89
2022/06/20 11:09:08;;;;;;;4.30;2.40;;;794.40;1536.00;;;;;;5032703;28;20025;-86
2022/06/20 11:12:15;;;;;;;4.38;2.45;;;819.30;1510.40;;;;;;5034718;28;20108;-85
2022/06/20 11:14:53;;;;;;;4.13;1.83;;;820.10;1510.40;;;;;;5021542;28;20044;-87
2022/06/20 11:17:45;;;;;;;5.13;1.60;;;845.00;1536.00;;;;;;5033045;28;20040;-84
2022/06/20 11:20:11;;;;;;;;;;;845.20;1510.40;;;;;;5020747;28;20034;-86
2022/06/20 11:22:43;;;;;;;3.97;2.67;;;845.30;1510.40;;;;;;4997147;28;20414;-84
2022/06/20 11:25:34;;;;;;;8.60;6.72;;;845.60;1510.40;;;;;;5004822;28;20053;-84
2022/06/20 11:28:15;;;;;;;5.70;2.60;;;870.40;1510.40;;;;;;4997052;28;20038;-82
2022/06/20 11:30:53;;;;;;;3.53;1.77;;;870.70;1510.40;;;;;;4996423;28;20495;-83
2022/06/20 11:36:52;;;;;;;8.38;7.28;;;870.90;1484.80;;;;;;5014060;28;20032;-83
2022/06/20 11:39:32;;;;;;;5.88;2.53;;;871.10;1433.60;;;;;;4997047;28;20037;-84
2022/06/20 11:42:14;;;;;;;3.75;1.80;;;871.10;1408.00;;;;;;4996781;28;20030;-83
2022/06/20 11:44:56;;;;;;;3.95;2.20;;;870.80;1433.60;;;;;;4996211;28;20121;-83
2022/06/20 11:47:59;;;;;;;4.68;2.80;;;871.10;1408.00;;;;;;4996399;28;20037;-83
2022/06/20 11:51:00;;;;;;;6.03;3.20;;;871.30;1408.00;;;;;;4996135;28;20022;-84
2022/06/20 11:54:01;;;;;;;9.57;5.00;;;871.20;1408.00;;;;;;4996468;28;20034;-83
2022/06/20 11:56:43;;;;;;;4.78;2.53;;;896.20;1408.00;;;;;;4999878;28;20022;-83
2022/06/20 11:59:16;;;;;;;6.25;2.40;;;896.50;1408.00;;;;;;5000198;28;20044;-82
2022/06/20 12:01:56;;;;;;;3.38;2.00;;;896.40;1408.00;;;;;;5010045;28;20516;-82
2022/06/20 12:04:32;;;;;;;3.72;2.10;;;896.60;1382.40;;;;;;5036674;28;20037;-82
2022/06/20 12:07:13;;;;;;;4.40;3.22;;;896.90;1382.40;;;;;;5019616;28;20033;-83
2022/06/20 12:09:48;;;;;;;4.93;2.33;;;896.60;1356.80;;;;;;5019552;28;20384;-82
2022/06/20 12:12:26;;;;;;;5.05;1.90;;;896.40;1382.40;;;;;;5037199;28;20025;-82
2022/06/20 12:15:20;;;;;;;3.85;2.03;;;896.60;1356.80;;;;;;5019862;28;20435;-82
2022/06/20 12:17:52;;;;;;;5.18;2.53;;;896.20;1356.80;;;;;;5019605;28;20029;-82
2022/06/20 12:23:26;;;;;;;4.35;2.50;;;896.90;1356.80;;;;;;5036935;28;20075;-81
2022/06/20 12:26:13;;;;;;;3.30;1.98;;;896.50;1331.20;;;;;;5019446;28;20463;-82
2022/06/20 12:28:44;;;;;;;6.15;2.60;;;896.60;1331.20;;;;;;5038286;28;20030;-82
2022/06/20 12:31:37;;;;;;;5.93;2.90;;;896.40;1331.20;;;;;;5056917;28;20038;-78
2022/06/20 12:34:19;;;;;;;3.83;2.40;;;871.20;1356.80;;;;;;5024088;28;20033;-80
2022/06/20 12:36:56;;;;;;;4.90;1.63;;;871.10;1356.80;;;;;;4999592;28;20034;-81
2022/06/20 12:39:23;;;;;;;3.80;2.10;;;871.00;1382.40;;;;;;4999405;28;20069;-83
2022/06/20 12:41:56;;;;;;;4.47;1.80;;;896.10;1356.80;;;;;;5016385;28;20030;-82
2022/06/20 12:44:43;;;;;;;7.43;4.30;;;896.60;1356.80;;;;;;5016630;28;20025;-84
2022/06/20 12:47:24;;;;;;;9.93;3.60;;;896.90;1356.80;;;;;;4999147;28;20033;-84
2022/06/20 12:50:02;;;;;;;4.53;3.40;;;921.70;1356.80;;;;;;4999484;28;20092;-82
2022/06/20 12:52:54;;;;;;;5.47;2.75;;;921.80;1356.80;;;;;;5016097;28;20406;-82
2022/06/20 12:55:52;;;;;;;3.75;2.10;;;922.10;1356.80;;;;;;4998901;28;20030;-80
2022/06/20 12:58:20;;;;;;;7.40;2.70;;;922.30;1331.20;;;;;;4930078;28;20044;-82
2022/06/20 13:01:02;;;;;;;6.78;2.22;;;922.40;1331.20;;;;;;5005188;28;20026;-85
2022/06/20 13:03:57;;;;;;;5.10;3.58;;;922.50;1305.60;;;;;;5015353;28;20372;-83
2022/06/20 13:06:57;;;;;;;5.47;3.45;;;947.20;1331.20;;;;;;5011845;28;20026;-85
2022/06/20 13:09:44;;;;;;;8.48;4.78;;;922.40;1331.20;;;;;;5005552;28;20481;-85
2022/06/20 13:12:34;;;;;;;5.85;2.22;;;922.50;1331.20;;;;;;4998778;28;20030;-82
2022/06/20 13:15:22;;;;;;;5.47;3.15;;;922.50;1305.60;;;;;;4998298;28;20053;-83
2022/06/20 13:18:03;;;;;;;8.20;3.35;;;922.50;1331.20;;;;;;4998525;28;20117;-84
2022/06/20 13:20:59;;;;;;;8.65;4.38;;;922.50;1305.60;;;;;;5003399;28;20060;-83
2022/06/20 13:23:53;;;;;;;8.05;4.10;;;947.30;1331.20;;;;;;5011369;28;20029;-83
2022/06/20 13:26:33;;;;;;;7.10;3.28;;;947.30;1280.00;;;;;;5014066;28;20029;-83